createdAt,value
2019-04-27T00:01:58.759Z,7.80
2019-04-27T00:06:47.383Z,8.40
2019-04-27T00:11:42.153Z,8.33
2019-04-27T00:16:58.998Z,8.80
2019-04-27T00:22:03.237Z,8.23
2019-04-27T00:26:49.318Z,8.33
2019-04-27T00:31:34.628Z,9.20
2019-04-27T00:36:26.412Z,9.00
2019-04-27T00:41:15.129Z,9.47
2019-04-27T00:46:00.512Z,8.90
2019-04-27T00:50:45.672Z,9.10
2019-04-27T00:55:31.411Z,8.00
2019-04-27T01:00:53.984Z,8.97
2019-04-27T01:05:39.392Z,9.93
2019-04-27T01:10:25.397Z,11.00
2019-04-27T01:15:10.332Z,9.77
2019-04-27T01:19:57.115Z,8.87
2019-04-27T01:24:46.067Z,10.37
2019-04-27T01:29:36.435Z,10.70
2019-04-27T01:34:27.115Z,14.07
2019-04-27T01:39:14.707Z,10.43
2019-04-27T01:43:59.822Z,11.07
2019-04-27T01:48:44.816Z,9.60
2019-04-27T01:53:30.430Z,9.80
2019-04-27T01:58:21.621Z,9.87
2019-04-27T02:03:08.573Z,9.47
2019-04-27T02:07:53.536Z,9.50
2019-04-27T02:12:39.756Z,9.03
2019-04-27T02:17:24.795Z,8.80
2019-04-27T02:22:09.641Z,8.63
2019-04-27T02:26:54.800Z,9.07
2019-04-27T02:32:16.539Z,8.07
2019-04-27T02:37:03.010Z,7.43
2019-04-27T02:41:51.502Z,9.23
2019-04-27T02:46:34.841Z,8.03
2019-04-27T02:51:34.775Z,8.47
2019-04-27T02:56:23.154Z,10.43
2019-04-27T03:01:09.941Z,12.00
2019-04-27T03:05:55.249Z,8.77
2019-04-27T03:10:40.558Z,8.77
2019-04-27T03:15:33.926Z,9.97
2019-04-27T03:20:36.190Z,9.93
2019-04-27T03:26:00.156Z,9.50
2019-04-27T03:30:44.742Z,11.20
2019-04-27T03:35:35.064Z,10.57
2019-04-27T03:40:16.110Z,11.43
2019-04-27T03:45:01.448Z,12.90
2019-04-27T03:49:50.280Z,10.23
2019-04-27T03:54:46.399Z,11.33
2019-04-27T03:59:34.071Z,11.47
2019-04-27T04:04:19.701Z,11.90
2019-04-27T04:09:10.159Z,12.03
2019-04-27T04:14:02.300Z,13.23
2019-04-27T04:19:00.731Z,11.60
2019-04-27T04:23:45.566Z,11.10
2019-04-27T04:28:30.156Z,13.40
2019-04-27T04:33:14.969Z,11.50
2019-04-27T04:38:00.360Z,14.60
2019-04-27T04:42:50.229Z,15.40
2019-04-27T04:47:44.912Z,14.27
2019-04-27T04:52:30.138Z,15.73
2019-04-27T04:57:15.009Z,13.63
2019-04-27T05:02:04.717Z,14.37
2019-04-27T05:06:50.783Z,14.37
2019-04-27T05:11:39.497Z,11.37
2019-04-27T05:16:24.623Z,11.47
2019-04-27T05:21:26.561Z,11.00
2019-04-27T05:26:23.427Z,11.73
2019-04-27T05:31:09.203Z,11.33
2019-04-27T05:35:58.966Z,10.13
2019-04-27T05:40:47.538Z,10.53
2019-04-27T05:46:15.666Z,10.70
2019-04-27T05:51:02.077Z,11.83
2019-04-27T05:55:47.346Z,11.07
2019-04-27T06:00:36.325Z,10.80
2019-04-27T06:05:22.917Z,10.53
2019-04-27T06:10:09.587Z,10.37
2019-04-27T06:15:06.436Z,11.70
2019-04-27T06:19:56.313Z,11.63
2019-04-27T06:24:41.585Z,12.23
2019-04-27T06:29:30.651Z,12.20
2019-04-27T06:34:15.646Z,12.97
2019-04-27T06:39:00.867Z,13.03
2019-04-27T06:43:46.370Z,11.93
2019-04-27T06:48:31.184Z,13.27
2019-04-27T06:53:16.883Z,12.23
2019-04-27T06:58:04.707Z,12.03
2019-04-27T07:02:51.891Z,12.83
2019-04-27T07:07:39.360Z,12.13
2019-04-27T07:12:28.701Z,11.23
2019-04-27T07:17:13.126Z,11.37
2019-04-27T07:22:00.919Z,14.53
2019-04-27T07:26:46.523Z,10.60
2019-04-27T07:31:32.576Z,11.53
2019-04-27T07:36:23.902Z,12.03
2019-04-27T07:41:11.450Z,13.63
2019-04-27T07:45:59.014Z,13.37
2019-04-27T07:50:48.249Z,13.23
2019-04-27T07:55:34.695Z,13.13
2019-04-27T08:00:19.904Z,13.20
2019-04-27T08:05:04.941Z,15.03
2019-04-27T08:09:50.970Z,15.43
2019-04-27T08:14:38.465Z,15.63
2019-04-27T08:19:23.342Z,15.90
2019-04-27T08:24:09.263Z,18.50
2019-04-27T08:29:20.344Z,16.80
2019-04-27T08:34:27.128Z,17.73
2019-04-27T08:39:13.347Z,18.20
2019-04-27T08:43:59.103Z,17.13
2019-04-27T08:48:44.614Z,17.17
2019-04-27T08:53:29.921Z,17.10
2019-04-27T08:58:19.676Z,16.57
2019-04-27T09:03:03.853Z,16.07
2019-04-27T09:08:08.706Z,16.00
2019-04-27T09:13:00.695Z,14.97
2019-04-27T09:17:49.598Z,14.67
2019-04-27T09:22:34.830Z,14.90
2019-04-27T09:27:22.859Z,15.53
2019-04-27T09:32:08.895Z,15.43
2019-04-27T09:36:57.031Z,16.07
2019-04-27T09:41:42.626Z,17.07
2019-04-27T09:46:30.807Z,16.30
2019-04-27T09:51:16.247Z,15.43
2019-04-27T09:56:01.381Z,14.37
2019-04-27T10:00:47.747Z,13.17
2019-04-27T10:05:33.055Z,11.60
2019-04-27T10:10:21.186Z,12.80
2019-04-27T10:15:23.799Z,11.77
2019-04-27T10:20:38.223Z,8.60
2019-04-27T10:25:28.399Z,10.03
2019-04-27T10:31:15.141Z,8.93
2019-04-27T10:36:01.209Z,12.63
2019-04-27T10:41:20.030Z,15.70
2019-04-27T10:46:57.316Z,13.50
2019-04-27T10:51:42.945Z,16.67
2019-04-27T10:56:27.859Z,16.50
2019-04-27T11:01:31.854Z,16.37
2019-04-27T11:06:32.543Z,15.33
2019-04-27T11:11:18.658Z,15.37
2019-04-27T11:16:06.934Z,13.57
2019-04-27T11:21:12.981Z,12.23
2019-04-27T11:25:58.230Z,10.43
2019-04-27T11:30:45.208Z,11.77
2019-04-27T11:35:51.997Z,10.63
2019-04-27T11:40:38.354Z,9.97
2019-04-27T11:45:23.905Z,11.33
2019-04-27T11:50:09.032Z,9.53
2019-04-27T11:56:06.809Z,7.33
2019-04-27T12:00:25.257Z,8.67
2019-04-27T12:05:11.327Z,6.00
2019-04-27T12:09:56.192Z,6.77
2019-04-27T12:14:41.689Z,6.43
2019-04-27T12:19:26.936Z,5.57
2019-04-27T12:24:16.150Z,6.10
2019-04-27T12:29:14.059Z,6.23
2019-04-27T12:33:59.135Z,7.73
2019-04-27T12:38:44.058Z,5.37
2019-04-27T12:43:30.558Z,5.80
2019-04-27T12:48:22.839Z,6.57
2019-04-27T12:53:10.692Z,5.27
2019-04-27T12:58:06.720Z,5.73
2019-04-27T13:02:52.664Z,7.20
2019-04-27T13:07:39.589Z,5.93
2019-04-27T13:12:25.530Z,4.70
2019-04-27T13:17:11.580Z,5.50
2019-04-27T13:21:58.859Z,5.20
2019-04-27T13:26:46.852Z,4.17
2019-04-27T13:31:31.756Z,4.40
2019-04-27T13:36:20.131Z,4.43
2019-04-27T13:41:27.723Z,4.30
2019-04-27T13:47:01.015Z,4.80
2019-04-27T13:51:57.534Z,5.73
2019-04-27T13:56:47.907Z,4.73
2019-04-27T14:01:56.041Z,4.43
2019-04-27T14:06:35.436Z,5.33
2019-04-27T14:11:26.055Z,4.30
2019-04-27T14:16:15.173Z,3.83
2019-04-27T14:21:02.922Z,8.13
2019-04-27T14:25:51.479Z,4.63
2019-04-27T14:30:40.086Z,4.07
2019-04-27T14:35:25.700Z,5.10
2019-04-27T14:40:11.091Z,4.33
2019-04-27T14:44:56.319Z,3.73
2019-04-27T14:49:42.738Z,3.17
2019-04-27T14:54:45.133Z,4.50
2019-04-27T14:59:19.496Z,4.63
2019-04-27T15:04:07.267Z,4.90
2019-04-27T15:08:52.949Z,5.23
2019-04-27T15:13:42.590Z,5.47
2019-04-27T15:18:29.678Z,5.40
2019-04-27T15:23:15.289Z,6.10
2019-04-27T15:28:03.416Z,4.40
2019-04-27T15:33:17.621Z,6.83
2019-04-27T15:38:13.718Z,6.70
2019-04-27T15:43:01.145Z,6.60
2019-04-27T15:47:54.210Z,6.80
2019-04-27T15:52:39.040Z,7.23
2019-04-27T15:57:25.012Z,7.43
2019-04-27T16:02:15.561Z,6.43
2019-04-27T16:07:00.532Z,4.93
2019-04-27T16:11:54.681Z,7.37
2019-04-27T16:16:33.645Z,5.60
2019-04-27T16:21:20.099Z,5.00
2019-04-27T16:26:54.364Z,5.20
2019-04-27T16:31:38.464Z,4.70
2019-04-27T16:36:24.313Z,4.77
2019-04-27T16:41:18.525Z,5.70
2019-04-27T16:46:05.406Z,3.70
2019-04-27T16:50:50.887Z,4.17
2019-04-27T16:55:36.090Z,3.93
2019-04-27T17:00:22.662Z,5.03
2019-04-27T17:05:09.778Z,4.33
2019-04-27T17:10:16.288Z,4.83
2019-04-27T17:15:22.275Z,4.80
2019-04-27T17:20:08.507Z,4.70
2019-04-27T17:24:53.840Z,2.63
2019-04-27T17:29:41.298Z,2.10
2019-04-27T17:34:32.169Z,2.00
2019-04-27T17:39:19.234Z,1.80
2019-04-27T17:44:04.301Z,1.50
2019-04-27T17:48:49.397Z,1.70
2019-04-27T17:53:34.723Z,2.47
2019-04-27T17:58:21.048Z,2.20
2019-04-27T18:03:08.165Z,3.37
2019-04-27T18:07:57.992Z,1.60
2019-04-27T18:12:44.549Z,1.50
2019-04-27T18:17:33.932Z,1.50
2019-04-27T18:22:24.451Z,2.50
2019-04-27T18:27:28.849Z,4.67
2019-04-27T18:32:17.670Z,3.47
2019-04-27T18:37:24.732Z,5.77
2019-04-27T18:42:50.298Z,3.10
2019-04-27T18:47:40.461Z,3.73
2019-04-27T18:52:47.708Z,4.03
2019-04-27T18:58:00.511Z,3.30
2019-04-27T19:03:06.488Z,2.97
2019-04-27T19:07:52.070Z,3.00
2019-04-27T19:14:22.835Z,3.10
2019-04-27T19:17:38.492Z,2.47
2019-04-27T19:22:30.076Z,2.93
2019-04-27T19:27:34.777Z,2.33
2019-04-27T19:32:23.998Z,1.80
2019-04-27T19:37:18.406Z,2.17
2019-04-27T19:42:20.054Z,2.47
2019-04-27T19:47:16.235Z,3.27
2019-04-27T19:52:10.863Z,2.90
2019-04-27T20:02:21.100Z,2.50
2019-04-27T20:07:10.323Z,4.37
2019-04-27T20:11:55.925Z,4.33
2019-04-27T20:16:51.775Z,3.50
2019-04-27T20:21:37.981Z,2.50
2019-04-27T20:26:26.273Z,2.60
2019-04-27T20:31:11.359Z,3.87
2019-04-27T20:35:58.433Z,4.23
2019-04-27T20:40:43.790Z,3.77
2019-04-27T20:45:36.122Z,2.93
2019-04-27T20:50:21.811Z,3.80
2019-04-27T20:55:08.591Z,3.80
2019-04-27T20:59:55.169Z,7.57
2019-04-27T21:04:44.790Z,4.80
2019-04-27T21:09:30.053Z,6.87
2019-04-27T21:14:15.330Z,5.83
2019-04-27T21:19:01.782Z,3.00
2019-04-27T21:23:47.497Z,2.50
2019-04-27T21:28:33.259Z,2.43
2019-04-27T21:33:21.557Z,2.30
2019-04-27T21:38:07.917Z,2.90
2019-04-27T21:42:52.968Z,1.90
2019-04-27T21:47:38.313Z,1.50
2019-04-27T21:52:29.244Z,1.60
2019-04-27T21:57:14.677Z,2.20
2019-04-27T22:02:02.269Z,1.23
2019-04-27T22:06:47.553Z,0.50
2019-04-27T22:11:33.179Z,0.60
2019-04-27T22:16:21.620Z,0.77
2019-04-27T22:21:06.872Z,0.60
2019-04-27T22:25:54.487Z,0.50
2019-04-27T22:30:39.545Z,0.40
2019-04-27T22:35:25.045Z,1.37
2019-04-27T22:40:28.841Z,0.60
2019-04-27T22:45:22.601Z,0.60
2019-04-27T22:50:15.756Z,0.77
2019-04-27T22:55:06.502Z,0.60
2019-04-27T23:00:08.867Z,0.70
2019-04-27T23:04:59.010Z,0.80
2019-04-27T23:09:44.852Z,0.80
2019-04-27T23:19:47.134Z,0.93
2019-04-27T23:24:26.611Z,1.47
2019-04-27T23:29:15.864Z,1.10
2019-04-27T23:34:55.871Z,1.30
2019-04-27T23:39:47.816Z,1.77
2019-04-27T23:44:35.327Z,1.43
2019-04-27T23:49:37.209Z,1.33
2019-04-27T23:54:29.593Z,1.47
2019-04-27T23:59:25.037Z,1.40
